Ryoei Maru — JL6703 — position and weather

sailwx.info

Track history (hours):
 
Tides and Currents Weather Stations Pressure Air Temp Water Temp Dewpoint Dewpoint Depression Visibility Wind Speed Wind Dir Waves Ship Positions

Ryoei Maru

Last reported at 2016-Apr-29 15:22 UTC. Time now 2016-Apr-30 05:15 UTC.
Position N 34°43' E 139°39'.

Length 95 m; draft 5 m.

Type: Cargo ship. MMSI: 431501749.

Date/timePositionNaut miles runAvg speedWind from/ knotsBaromVisibWave heightAir tempDewpointWater temp
2016-Apr-29 15:22N 34°43' E 139°39'1613.3
2016-Apr-29 14:10N 34°51' E 139°56'813.6
2016-Apr-29 13:33N 34°55' E 140°05'2912.6
2016-Apr-29 11:15N 35°13' E 140°33'  
2016-Apr-25 23:27N 36°31' E 141°01'1313.7
2016-Apr-25 22:30N 36°18' E 141°00'1313.5
2016-Apr-25 21:33N 36°06' E 140°59'1313.2
2016-Apr-25 20:33N 35°52' E 140°58'1313.1
2016-Apr-25 19:33N 35°40' E 140°56'1313.3
2016-Apr-25 18:33N 35°29' E 140°46'1413.3
2016-Apr-25 17:31N 35°17' E 140°36'1414.3
2016-Apr-25 16:31N 35°06' E 140°26'1313.7
2016-Apr-25 15:33N 34°58' E 140°13'1413.4
2016-Apr-25 14:33N 34°52' E 139°58'1312.7
2016-Apr-25 13:33N 34°46' E 139°45'24010.9
2016-Apr-24 15:24N 34°00' E 134°59'1213.5
2016-Apr-24 14:33N 34°12' E 134°58'1211.7
2016-Apr-24 13:33N 34°23' E 135°01'1313.1
2016-Apr-24 12:33N 34°31' E 135°13'1211.6
2016-Apr-24 11:34N 34°37' E 135°26'0 0.3
2016-Apr-24 10:29N 34°37' E 135°26'0 0.0
2016-Apr-24 09:29N 34°37' E 135°26'0 0.0
2016-Apr-24 08:29N 34°37' E 135°26'0 0.0
2016-Apr-24 07:29N 34°37' E 135°26'0 0.0
2016-Apr-24 06:23N 34°37' E 135°26'0 0.0
2016-Apr-24 05:23N 34°37' E 135°26'0 0.0
2016-Apr-24 04:29N 34°37' E 135°26'0 0.0
2016-Apr-24 03:29N 34°37' E 135°26'0 0.0
2016-Apr-24 02:23N 34°37' E 135°26'0 0.1
2016-Apr-24 01:29N 34°37' E 135°26'0 0.0
2016-Apr-24 00:29N 34°37' E 135°26'0 0.0
2016-Apr-23 23:29N 34°37' E 135°26'0 0.0
2016-Apr-23 22:30N 34°37' E 135°26'6 6.2
2016-Apr-23 21:33N 34°35' E 135°19'0 0.3
2016-Apr-23 20:22N 34°35' E 135°18'0 0.0
2016-Apr-23 19:28N 34°35' E 135°18'0 0.0
2016-Apr-23 18:28N 34°35' E 135°18'0 0.0
2016-Apr-23 17:28N 34°35' E 135°18'0 0.1
2016-Apr-23 16:33N 34°35' E 135°18'1211.9
2016-Apr-23 15:33N 34°26' E 135°09'1211.9
2016-Apr-23 14:33N 34°17' E 134°59'1312.8
2016-Apr-23 13:33N 34°04' E 134°60'23310.5
2016-Apr-22 15:22N 34°43' E 139°39'1112.1
2016-Apr-22 14:26N 34°48' E 139°51'1212.4
2016-Apr-22 13:29N 34°54' E 140°03'1312.4
2016-Apr-22 12:28N 35°01' E 140°17'1211.1
2016-Apr-22 11:25N 35°08' E 140°28'  
Track history (hours):
 
Tides and Currents Weather Stations Pressure Air Temp Water Temp Dewpoint Dewpoint Depression Visibility Wind Speed Wind Dir Waves Ship Positions

Ryoei Maru

Last reported at 2016-Apr-29 15:22 UTC. Time now 2016-Apr-30 05:15 UTC.
Position N 34°43' E 139°39'.

Length 95 m; draft 5 m.

Type: Cargo ship. MMSI: 431501749.

Date/timePositionNaut miles runAvg speedWind from/ knotsBaromVisibWave heightAir tempDewpointWater temp
2016-Apr-29 15:22N 34°43' E 139°39'1613.3
2016-Apr-29 14:10N 34°51' E 139°56'813.6
2016-Apr-29 13:33N 34°55' E 140°05'2912.6
2016-Apr-29 11:15N 35°13' E 140°33'  
2016-Apr-25 23:27N 36°31' E 141°01'1313.7
2016-Apr-25 22:30N 36°18' E 141°00'1313.5
2016-Apr-25 21:33N 36°06' E 140°59'1313.2
2016-Apr-25 20:33N 35°52' E 140°58'1313.1
2016-Apr-25 19:33N 35°40' E 140°56'1313.3
2016-Apr-25 18:33N 35°29' E 140°46'1413.3
2016-Apr-25 17:31N 35°17' E 140°36'1414.3
2016-Apr-25 16:31N 35°06' E 140°26'1313.7
2016-Apr-25 15:33N 34°58' E 140°13'1413.4
2016-Apr-25 14:33N 34°52' E 139°58'1312.7
2016-Apr-25 13:33N 34°46' E 139°45'24010.9
2016-Apr-24 15:24N 34°00' E 134°59'1213.5
2016-Apr-24 14:33N 34°12' E 134°58'1211.7
2016-Apr-24 13:33N 34°23' E 135°01'1313.1
2016-Apr-24 12:33N 34°31' E 135°13'1211.6
2016-Apr-24 11:34N 34°37' E 135°26'0 0.3
2016-Apr-24 10:29N 34°37' E 135°26'0 0.0
2016-Apr-24 09:29N 34°37' E 135°26'0 0.0
2016-Apr-24 08:29N 34°37' E 135°26'0 0.0
2016-Apr-24 07:29N 34°37' E 135°26'0 0.0
2016-Apr-24 06:23N 34°37' E 135°26'0 0.0
2016-Apr-24 05:23N 34°37' E 135°26'0 0.0
2016-Apr-24 04:29N 34°37' E 135°26'0 0.0
2016-Apr-24 03:29N 34°37' E 135°26'0 0.0
2016-Apr-24 02:23N 34°37' E 135°26'0 0.1
2016-Apr-24 01:29N 34°37' E 135°26'0 0.0
2016-Apr-24 00:29N 34°37' E 135°26'0 0.0
2016-Apr-23 23:29N 34°37' E 135°26'0 0.0
2016-Apr-23 22:30N 34°37' E 135°26'6 6.2
2016-Apr-23 21:33N 34°35' E 135°19'0 0.3
2016-Apr-23 20:22N 34°35' E 135°18'0 0.0
2016-Apr-23 19:28N 34°35' E 135°18'0 0.0
2016-Apr-23 18:28N 34°35' E 135°18'0 0.0
2016-Apr-23 17:28N 34°35' E 135°18'0 0.1
2016-Apr-23 16:33N 34°35' E 135°18'1211.9
2016-Apr-23 15:33N 34°26' E 135°09'1211.9
2016-Apr-23 14:33N 34°17' E 134°59'1312.8
2016-Apr-23 13:33N 34°04' E 134°60'23310.5
2016-Apr-22 15:22N 34°43' E 139°39'1112.1
2016-Apr-22 14:26N 34°48' E 139°51'1212.4
2016-Apr-22 13:29N 34°54' E 140°03'1312.4
2016-Apr-22 12:28N 35°01' E 140°17'1211.1
2016-Apr-22 11:25N 35°08' E 140°28'  

Dump ship's entire track history